Terminal Aerodrome Forecast
Issued by NWS Omaha/Valley, NE

Home | Current Version | Previous Version | Text Only | Print | Product List | Glossary On
Versions: 1 2 3 4 5 6 7 8 9 10 11 12 13 14 15 16 17 18 19 20 21 22 23 24
000
FTUS43 KOAX 221139
TAFLNK
TAF
KLNK 221139Z 2212/2312 VRB05KT P6SM SCT040 SCT250
      TEMPO 2212/2214 5SM BR
     FM222100 07006KT P6SM BKN040 BKN250 PROB30 2301/2304 5SM TSRA
      BKN040CB
     FM230400 08006KT P6SM -SHRA SCT040 OVC100
     FM230700 10007KT P6SM OVC100
     FM230900 14006KT 4SM BR OVC100=

USA.gov is the U.S. government's official web portal to all federal, state and local government web resources and services.